createdAt,value
2023-02-09T00:02:43.001Z,101867.31
2023-02-09T00:07:44.651Z,101871.44
2023-02-09T00:13:05.126Z,101861.97
2023-02-09T00:18:06.792Z,101862.94
2023-02-09T00:23:08.601Z,101859.50
2023-02-09T00:28:10.269Z,101856.59
2023-02-09T00:33:11.905Z,101855.81
2023-02-09T00:38:14.159Z,101855.47
2023-02-09T00:43:15.991Z,101855.19
2023-02-09T00:48:17.732Z,101849.88
2023-02-09T00:53:21.706Z,101848.75
2023-02-09T00:58:23.581Z,101842.91
2023-02-09T01:03:25.619Z,101839.19
2023-02-09T01:08:28.799Z,101839.47
2023-02-09T01:13:30.438Z,101832.06
2023-02-09T01:18:32.954Z,101830.03
2023-02-09T01:23:36.863Z,101826.97
2023-02-09T01:28:39.322Z,101831.50
2023-02-09T01:33:41.226Z,101822.22
2023-02-09T01:38:43.294Z,101817.53
2023-02-09T01:43:54.807Z,101817.50
2023-02-09T01:49:15.547Z,101802.72
2023-02-09T01:54:23.367Z,101818.28
2023-02-09T01:59:25.562Z,101812.16
2023-02-09T02:04:27.559Z,101803.34
2023-02-09T02:09:30.999Z,101796.19
2023-02-09T02:14:36.216Z,101799.53
2023-02-09T02:19:56.526Z,101797.19
2023-02-09T02:25:37.160Z,101801.34
2023-02-09T02:31:00.176Z,101803.13
2023-02-09T02:36:12.284Z,101798.06
2023-02-09T02:41:26.833Z,101794.50
2023-02-09T02:46:43.478Z,101796.28
2023-02-09T02:51:49.308Z,101791.88
2023-02-09T02:57:00.538Z,101782.91
2023-02-09T03:02:13.334Z,101778.19
2023-02-09T03:07:17.755Z,101779.38
2023-02-09T03:12:40.597Z,101782.22
2023-02-09T03:18:08.266Z,101783.19
2023-02-09T03:23:31.280Z,101781.41
2023-02-09T03:28:37.614Z,101773.88
2023-02-09T03:33:39.968Z,101778.19
2023-02-09T03:38:41.636Z,101774.03
2023-02-09T03:44:02.118Z,101770.97
2023-02-09T03:49:03.812Z,101766.28
2023-02-09T03:54:05.899Z,101770.84
2023-02-09T03:59:07.826Z,101765.38
2023-02-09T04:04:09.604Z,101765.22
2023-02-09T04:09:11.588Z,101757.81
2023-02-09T04:14:13.464Z,101754.84
2023-02-09T04:19:17.903Z,101756.03
2023-02-09T04:24:21.341Z,101758.44
2023-02-09T04:29:23.030Z,101753.69
2023-02-09T04:34:24.828Z,101753.47
2023-02-09T04:39:26.595Z,101739.38
2023-02-09T04:44:28.423Z,101741.44
2023-02-09T04:49:30.106Z,101742.78
2023-02-09T04:54:31.802Z,101738.16
2023-02-09T04:59:39.041Z,101740.66
2023-02-09T05:04:40.598Z,101727.53
2023-02-09T05:09:42.234Z,101731.50
2023-02-09T05:14:43.884Z,101725.81
2023-02-09T05:19:46.782Z,101727.16
2023-02-09T05:24:48.460Z,101728.50
2023-02-09T05:29:50.171Z,101717.13
2023-02-09T05:34:51.861Z,101724.44
2023-02-09T05:39:54.059Z,101719.03
2023-02-09T05:44:55.694Z,101719.13
2023-02-09T05:49:57.310Z,101719.06
2023-02-09T05:54:58.989Z,101720.31
2023-02-09T06:00:00.684Z,101723.59
2023-02-09T06:05:02.337Z,101712.56
2023-02-09T06:10:04.309Z,101717.88
2023-02-09T06:15:06.677Z,101722.97
2023-02-09T06:20:09.446Z,101723.78
2023-02-09T06:25:11.114Z,101731.34
2023-02-09T06:30:13.336Z,101732.16
2023-02-09T06:35:15.261Z,101738.66
2023-02-09T06:40:17.041Z,101738.78
2023-02-09T06:45:18.879Z,101743.00
2023-02-09T06:50:20.961Z,101739.47
2023-02-09T06:55:22.813Z,101739.31
2023-02-09T07:00:24.561Z,101739.56
2023-02-09T07:05:26.995Z,101731.88
2023-02-09T07:10:28.858Z,101726.38
2023-02-09T07:15:30.605Z,101732.25
2023-02-09T07:20:32.282Z,101736.38
2023-02-09T07:25:34.524Z,101740.56
2023-02-09T07:30:40.986Z,101740.97
2023-02-09T07:35:42.972Z,101756.53
2023-02-09T07:40:46.781Z,101758.41
2023-02-09T07:45:48.772Z,101747.97
2023-02-09T07:50:51.523Z,101747.28
2023-02-09T07:55:53.239Z,101758.28
2023-02-09T08:00:54.992Z,101748.63
2023-02-09T08:06:20.884Z,101747.56
2023-02-09T08:11:34.545Z,101753.25
2023-02-09T08:16:36.821Z,101755.38
2023-02-09T08:21:41.514Z,101757.53
2023-02-09T08:26:44.197Z,101765.25
2023-02-09T08:31:46.216Z,101773.53
2023-02-09T08:36:47.990Z,101772.63
2023-02-09T08:41:49.667Z,101750.94
2023-02-09T08:46:51.719Z,101752.28
2023-02-09T08:51:54.224Z,101749.81
2023-02-09T08:56:55.882Z,101753.47
2023-02-09T09:01:57.516Z,101748.22
2023-02-09T09:06:59.225Z,101732.16
2023-02-09T09:12:00.919Z,101744.34
2023-02-09T09:17:02.591Z,101753.50
2023-02-09T09:22:04.285Z,101754.50
2023-02-09T09:27:07.441Z,101764.44
2023-02-09T09:32:13.886Z,101752.53
2023-02-09T09:37:15.679Z,101749.09
2023-02-09T09:42:25.976Z,101745.88
2023-02-09T09:47:36.546Z,101742.69
2023-02-09T09:52:42.069Z,101742.38
2023-02-09T09:57:44.989Z,101750.59
2023-02-09T10:02:46.912Z,101747.50
2023-02-09T10:08:10.807Z,101733.16
2023-02-09T10:13:23.078Z,101729.47
2023-02-09T10:18:25.814Z,101733.06
2023-02-09T10:23:41.534Z,101729.47
2023-02-09T10:28:52.793Z,101724.13
2023-02-09T10:34:13.674Z,101720.31
2023-02-09T10:39:18.508Z,101713.47
2023-02-09T10:44:24.890Z,101694.28
2023-02-09T10:49:29.130Z,101689.47
2023-02-09T10:54:31.640Z,101691.78
2023-02-09T10:59:36.177Z,101691.81
2023-02-09T11:04:40.097Z,101678.44
2023-02-09T11:09:47.630Z,101674.19
2023-02-09T11:14:49.699Z,101664.41
2023-02-09T11:20:13.834Z,101656.19
2023-02-09T11:25:50.171Z,101656.19
2023-02-09T11:31:39.401Z,101647.50
2023-02-09T11:37:02.753Z,101635.97
2023-02-09T11:42:34.400Z,101614.28
2023-02-09T11:47:58.459Z,101608.53
2023-02-09T11:53:05.090Z,101602.97
2023-02-09T11:58:44.174Z,101593.81
2023-02-09T12:04:26.024Z,101573.56
2023-02-09T12:09:35.801Z,101576.59
2023-02-09T12:14:59.181Z,101566.66
2023-02-09T12:20:02.575Z,101555.81
2023-02-09T12:25:17.556Z,101564.06
2023-02-09T12:30:40.682Z,101553.63
2023-02-09T12:35:43.931Z,101532.53
2023-02-09T12:41:02.553Z,101524.81
2023-02-09T12:46:20.172Z,101512.34
2023-02-09T12:52:01.380Z,101486.78
2023-02-09T12:57:15.046Z,101500.28
2023-02-09T13:02:24.005Z,101496.88
2023-02-09T13:07:56.192Z,101498.25
2023-02-09T13:13:12.740Z,101496.75
2023-02-09T13:18:24.029Z,101487.13
2023-02-09T13:23:28.646Z,101483.53
2023-02-09T13:28:30.352Z,101473.84
2023-02-09T13:33:46.264Z,101445.47
2023-02-09T13:38:48.685Z,101453.56
2023-02-09T13:43:50.358Z,101462.03
2023-02-09T13:48:51.998Z,101462.41
2023-02-09T13:53:59.073Z,101472.78
2023-02-09T13:59:01.417Z,101473.16
2023-02-09T14:04:19.919Z,101479.75
2023-02-09T14:09:46.602Z,101479.59
2023-02-09T14:15:15.918Z,101476.69
2023-02-09T14:20:24.611Z,101487.06
2023-02-09T14:25:31.104Z,101489.75
2023-02-09T14:30:36.384Z,101495.56
2023-02-09T14:35:43.383Z,101501.25
2023-02-09T14:40:45.228Z,101492.63
2023-02-09T14:45:58.132Z,101493.50
2023-02-09T14:51:16.193Z,101493.84
2023-02-09T14:56:30.020Z,101491.88
2023-02-09T15:01:32.124Z,101478.75
2023-02-09T15:06:35.509Z,101485.13
2023-02-09T15:11:56.105Z,101477.81
2023-02-09T15:16:57.825Z,101479.41
2023-02-09T15:22:07.471Z,101477.19
2023-02-09T15:27:19.719Z,101476.34
2023-02-09T15:32:23.472Z,101477.72
2023-02-09T15:37:28.560Z,101492.88
2023-02-09T15:42:48.869Z,101492.28
2023-02-09T15:47:52.751Z,101493.00
2023-02-09T15:52:57.352Z,101496.41
2023-02-09T15:57:59.419Z,101504.34
2023-02-09T16:03:01.700Z,101507.72
2023-02-09T16:08:03.504Z,101511.41
2023-02-09T16:13:06.456Z,101516.28
2023-02-09T16:18:08.183Z,101506.53
2023-02-09T16:23:20.249Z,101512.72
2023-02-09T16:28:22.972Z,101522.53
2023-02-09T16:33:25.898Z,101526.56
2023-02-09T16:38:29.829Z,101524.13
2023-02-09T16:43:31.430Z,101517.50
2023-02-09T16:48:34.917Z,101530.75
2023-02-09T16:53:48.309Z,101538.22
2023-02-09T16:58:50.013Z,101554.75
2023-02-09T17:03:56.607Z,101551.84
2023-02-09T17:08:58.733Z,101550.09
2023-02-09T17:14:00.449Z,101556.81
2023-02-09T17:19:06.143Z,101565.47
2023-02-09T17:24:17.666Z,101572.72
2023-02-09T17:29:21.304Z,101568.28
2023-02-09T17:34:28.385Z,101568.41
2023-02-09T17:39:30.985Z,101577.25
2023-02-09T17:44:45.600Z,101592.44
2023-02-09T17:49:47.682Z,101599.63
2023-02-09T17:54:50.882Z,101599.94
2023-02-09T17:59:52.478Z,101594.94
2023-02-09T18:04:54.252Z,101598.31
2023-02-09T18:09:56.637Z,101590.53
2023-02-09T18:14:59.145Z,101583.44
2023-02-09T18:20:00.937Z,101589.41
2023-02-09T18:25:02.807Z,101586.59
2023-02-09T18:30:05.011Z,101582.38
2023-02-09T18:35:07.094Z,101580.25
2023-02-09T18:40:09.125Z,101583.16
2023-02-09T18:45:12.135Z,101585.78
2023-02-09T18:50:19.667Z,101584.06
2023-02-09T18:55:24.406Z,101585.25
2023-02-09T19:00:26.687Z,101585.53
2023-02-09T19:05:32.674Z,101577.78
2023-02-09T19:10:36.010Z,101581.94
2023-02-09T19:15:39.671Z,101579.47
2023-02-09T19:20:41.476Z,101573.94
2023-02-09T19:25:43.164Z,101573.53
2023-02-09T19:30:44.866Z,101576.22
2023-02-09T19:35:46.764Z,101569.69
2023-02-09T19:40:49.329Z,101558.78
2023-02-09T19:45:59.134Z,101576.53
2023-02-09T19:51:00.879Z,101567.03
2023-02-09T19:56:02.679Z,101565.28
2023-02-09T20:01:09.029Z,101574.34
2023-02-09T20:06:13.642Z,101591.53
2023-02-09T20:11:20.436Z,101595.75
2023-02-09T20:16:25.013Z,101592.78
2023-02-09T20:21:26.799Z,101594.41
2023-02-09T20:26:29.797Z,101590.81
2023-02-09T20:31:34.948Z,101586.13
2023-02-09T20:36:39.590Z,101586.25
2023-02-09T20:42:03.053Z,101593.38
2023-02-09T20:47:04.808Z,101585.25
2023-02-09T20:52:07.041Z,101578.34
2023-02-09T20:57:09.007Z,101573.25
2023-02-09T21:02:12.846Z,101570.88
2023-02-09T21:07:14.588Z,101569.19
2023-02-09T21:12:16.276Z,101560.53
2023-02-09T21:17:19.666Z,101573.41
2023-02-09T21:22:21.547Z,101577.25
2023-02-09T21:27:26.070Z,101583.03
2023-02-09T21:32:27.872Z,101595.56
2023-02-09T21:37:32.689Z,101604.53
2023-02-09T21:42:35.659Z,101612.38
2023-02-09T21:47:39.474Z,101615.56
2023-02-09T21:52:41.333Z,101620.78
2023-02-09T21:57:43.453Z,101631.91
2023-02-09T22:02:45.710Z,101635.88
2023-02-09T22:07:48.409Z,101638.22
2023-02-09T22:12:50.203Z,101646.44
2023-02-09T22:17:51.875Z,101651.38
2023-02-09T22:22:56.663Z,101653.22
2023-02-09T22:27:58.365Z,101650.44
2023-02-09T22:33:01.514Z,101657.84
2023-02-09T22:38:03.257Z,101646.63
2023-02-09T22:43:05.137Z,101648.94
2023-02-09T22:48:06.915Z,101641.91
2023-02-09T22:53:08.703Z,101646.16
2023-02-09T22:58:10.415Z,101643.56
2023-02-09T23:03:12.186Z,101645.69
2023-02-09T23:08:13.823Z,101640.38
2023-02-09T23:13:15.463Z,101642.44
2023-02-09T23:18:17.414Z,101645.06
2023-02-09T23:23:19.155Z,101650.91
2023-02-09T23:28:20.968Z,101625.31
2023-02-09T23:33:22.949Z,101626.03
2023-02-09T23:38:24.740Z,101634.16
2023-02-09T23:43:26.442Z,101641.47
2023-02-09T23:48:28.232Z,101649.31
2023-02-09T23:53:31.430Z,101658.22
2023-02-09T23:58:38.073Z,101656.94
